Adak, AK (99546)

10:59 AM HDT on September 03, 2015 (GMT -0900)
Adak | | Change Station
CLOSE
Current Station
Airport
Location: Adak,
Elevation: 13 ft
Nearby Weather Stations

Elev 13 ft 51.88 °N, 176.65 °W | Updated 3 minutes ago

Overcast
Overcast
52 °F
Feels Like 52 °F
N
21
Wind Variable Wind from WSW
Gusts 26 mph

Today
High -- | Low -- °F
--% Chance of Precip.
Yesterday
High -- | Low -- °F
Precip. -- in
8:01 AM 9:28 PM
Waning Gibbous, 67% visible
Pressure 29.85 in
Visibility 10.0 miles
Clouds Overcast 8000 ft
Dew Point 45 °F
Humidity 76%
Rainfall 0.00 in
Snow Depth Not available.
UV 1 out of 12
Pollen Not available.
Air Quality Not available.
Flu Activity Not available.
METAR PADK 031956Z 25018G23KT 10SM OVC080 11/07 A2985 RMK AO1
Pressure 29.85 in
Visibility 10.0 miles
Clouds Overcast 8000 ft
Dew Point 45 °F
Humidity 76%
Rainfall 0.00 in
Snow Depth Not available.
UV 1 out of 12
Pollen Not available.
Air Quality Not available.
Flu Activity Not available.
METAR PADK 031956Z 25018G23KT 10SM OVC080 11/07 A2985 RMK AO1

10-Day Weather Forecast

×

Almanac

Astronomy

Sep. 03, 2015 Rise Set
Actual Time
Civil Twilight
Nautical Twilight
Astronomical Twilight
Moon
Length of Visible Light
Length of Day
Tomorrow will be .
, % of the Moon is Illuminated

Today's Extremes

State Highs State Lows

Community

WunderPhotos

Upload Photos

1,852,017 photos uploaded!

WunderBlogs® & News

Nearby

Air Quality

  Air Quality AQ Index Pollutant
Not available.

Snow Depth

Station Depth Elevation

Earthquake Activity

City Distance Mag. Time & Date
Minimum magnitude displayed is 2.5.

Coastal Water Temperatures

Place Temperature

Stations

Nearby Weather Stations

Station Location Temp. Windchill Dew Point Humidity Wind Precip. Elev Updated Type